sensor_id;sensor_type;location;lat;lon;timestamp;temperature;humidity
37412;DHT22;23278;52.110;6.050;2022-07-18T00:00:11;16.60;65.90
37412;DHT22;23278;52.110;6.050;2022-07-18T00:02:37;16.50;66.00
37412;DHT22;23278;52.110;6.050;2022-07-18T00:05:04;16.50;66.40
37412;DHT22;23278;52.110;6.050;2022-07-18T00:07:30;16.50;66.90
37412;DHT22;23278;52.110;6.050;2022-07-18T00:09:56;16.50;67.20
37412;DHT22;23278;52.110;6.050;2022-07-18T00:12:22;16.40;67.20
37412;DHT22;23278;52.110;6.050;2022-07-18T00:14:48;16.30;67.70
37412;DHT22;23278;52.110;6.050;2022-07-18T00:17:14;16.30;67.80
37412;DHT22;23278;52.110;6.050;2022-07-18T00:19:40;16.30;68.10
37412;DHT22;23278;52.110;6.050;2022-07-18T00:22:06;16.20;68.40
37412;DHT22;23278;52.110;6.050;2022-07-18T00:24:32;16.10;68.50
37412;DHT22;23278;52.110;6.050;2022-07-18T00:26:59;16.10;68.60
37412;DHT22;23278;52.110;6.050;2022-07-18T00:29:26;16.00;69.00
37412;DHT22;23278;52.110;6.050;2022-07-18T00:31:52;16.00;69.10
37412;DHT22;23278;52.110;6.050;2022-07-18T00:34:18;16.00;69.20
37412;DHT22;23278;52.110;6.050;2022-07-18T00:36:43;15.90;69.50
37412;DHT22;23278;52.110;6.050;2022-07-18T00:39:09;15.90;69.80
37412;DHT22;23278;52.110;6.050;2022-07-18T00:41:35;15.80;70.00
37412;DHT22;23278;52.110;6.050;2022-07-18T00:44:01;15.80;70.20
37412;DHT22;23278;52.110;6.050;2022-07-18T00:46:28;15.70;70.30
37412;DHT22;23278;52.110;6.050;2022-07-18T00:48:54;15.70;70.50
37412;DHT22;23278;52.110;6.050;2022-07-18T00:51:21;15.70;70.70
37412;DHT22;23278;52.110;6.050;2022-07-18T00:53:48;15.60;70.70
37412;DHT22;23278;52.110;6.050;2022-07-18T00:56:19;15.60;70.80
37412;DHT22;23278;52.110;6.050;2022-07-18T00:58:45;15.50;71.00
37412;DHT22;23278;52.110;6.050;2022-07-18T01:01:11;15.50;71.20
37412;DHT22;23278;52.110;6.050;2022-07-18T01:03:56;15.50;71.40
37412;DHT22;23278;52.110;6.050;2022-07-18T01:06:22;15.50;72.00
37412;DHT22;23278;52.110;6.050;2022-07-18T01:08:48;15.40;72.20
37412;DHT22;23278;52.110;6.050;2022-07-18T01:11:14;15.40;72.40
37412;DHT22;23278;52.110;6.050;2022-07-18T01:13:40;15.30;72.40
37412;DHT22;23278;52.110;6.050;2022-07-18T01:16:06;15.30;72.70
37412;DHT22;23278;52.110;6.050;2022-07-18T01:18:33;15.20;72.90
37412;DHT22;23278;52.110;6.050;2022-07-18T01:20:59;15.20;73.40
37412;DHT22;23278;52.110;6.050;2022-07-18T01:23:25;15.20;73.50
37412;DHT22;23278;52.110;6.050;2022-07-18T01:25:52;15.10;73.50
37412;DHT22;23278;52.110;6.050;2022-07-18T01:28:18;15.10;73.70
37412;DHT22;23278;52.110;6.050;2022-07-18T01:30:44;15.00;74.10
37412;DHT22;23278;52.110;6.050;2022-07-18T01:33:10;15.00;74.20
37412;DHT22;23278;52.110;6.050;2022-07-18T01:35:36;14.90;74.50
37412;DHT22;23278;52.110;6.050;2022-07-18T01:38:03;14.90;74.60
37412;DHT22;23278;52.110;6.050;2022-07-18T01:40:30;14.80;75.10
37412;DHT22;23278;52.110;6.050;2022-07-18T01:42:56;14.80;75.30
37412;DHT22;23278;52.110;6.050;2022-07-18T01:45:22;14.80;75.40
37412;DHT22;23278;52.110;6.050;2022-07-18T01:47:48;14.70;75.60
37412;DHT22;23278;52.110;6.050;2022-07-18T01:50:15;14.70;75.90
37412;DHT22;23278;52.110;6.050;2022-07-18T01:52:41;14.70;76.10
37412;DHT22;23278;52.110;6.050;2022-07-18T01:55:09;14.60;76.20
37412;DHT22;23278;52.110;6.050;2022-07-18T01:57:35;14.60;76.50
37412;DHT22;23278;52.110;6.050;2022-07-18T02:00:02;14.60;76.80
37412;DHT22;23278;52.110;6.050;2022-07-18T02:02:30;14.50;77.00
37412;DHT22;23278;52.110;6.050;2022-07-18T02:04:56;14.50;77.20
37412;DHT22;23278;52.110;6.050;2022-07-18T02:07:43;14.50;77.60
37412;DHT22;23278;52.110;6.050;2022-07-18T02:10:12;14.40;77.80
37412;DHT22;23278;52.110;6.050;2022-07-18T02:12:39;14.30;77.80
37412;DHT22;23278;52.110;6.050;2022-07-18T02:15:06;14.30;78.20
37412;DHT22;23278;52.110;6.050;2022-07-18T02:17:33;14.30;78.40
37412;DHT22;23278;52.110;6.050;2022-07-18T02:19:59;14.20;78.60
37412;DHT22;23278;52.110;6.050;2022-07-18T02:22:25;14.20;78.80
37412;DHT22;23278;52.110;6.050;2022-07-18T02:24:51;14.20;79.00
37412;DHT22;23278;52.110;6.050;2022-07-18T02:27:17;14.10;79.10
37412;DHT22;23278;52.110;6.050;2022-07-18T02:29:44;14.10;79.70
37412;DHT22;23278;52.110;6.050;2022-07-18T02:32:10;14.10;80.00
37412;DHT22;23278;52.110;6.050;2022-07-18T02:34:36;14.10;80.20
37412;DHT22;23278;52.110;6.050;2022-07-18T02:37:02;14.00;80.40
37412;DHT22;23278;52.110;6.050;2022-07-18T02:39:28;14.00;80.50
37412;DHT22;23278;52.110;6.050;2022-07-18T02:41:55;13.90;80.60
37412;DHT22;23278;52.110;6.050;2022-07-18T02:44:21;13.90;80.80
37412;DHT22;23278;52.110;6.050;2022-07-18T02:46:47;13.90;81.10
37412;DHT22;23278;52.110;6.050;2022-07-18T02:49:14;13.80;81.20
37412;DHT22;23278;52.110;6.050;2022-07-18T02:51:54;13.80;81.20
37412;DHT22;23278;52.110;6.050;2022-07-18T02:54:20;13.80;81.40
37412;DHT22;23278;52.110;6.050;2022-07-18T02:56:46;13.80;81.60
37412;DHT22;23278;52.110;6.050;2022-07-18T02:59:12;13.80;81.90
37412;DHT22;23278;52.110;6.050;2022-07-18T03:01:38;13.80;82.00
37412;DHT22;23278;52.110;6.050;2022-07-18T03:04:04;13.80;82.10
37412;DHT22;23278;52.110;6.050;2022-07-18T03:06:30;13.70;82.30
37412;DHT22;23278;52.110;6.050;2022-07-18T03:08:56;13.70;82.40
37412;DHT22;23278;52.110;6.050;2022-07-18T03:11:22;13.70;82.70
37412;DHT22;23278;52.110;6.050;2022-07-18T03:13:47;13.70;82.90
37412;DHT22;23278;52.110;6.050;2022-07-18T03:16:13;13.70;83.00
37412;DHT22;23278;52.110;6.050;2022-07-18T03:18:39;13.60;83.30
37412;DHT22;23278;52.110;6.050;2022-07-18T03:21:05;13.60;84.10
37412;DHT22;23278;52.110;6.050;2022-07-18T03:23:31;13.60;84.10
37412;DHT22;23278;52.110;6.050;2022-07-18T03:25:57;13.60;84.20
37412;DHT22;23278;52.110;6.050;2022-07-18T03:28:23;13.60;84.30
37412;DHT22;23278;52.110;6.050;2022-07-18T03:30:48;13.50;84.30
37412;DHT22;23278;52.110;6.050;2022-07-18T03:33:14;13.60;84.50
37412;DHT22;23278;52.110;6.050;2022-07-18T03:35:40;13.50;84.80
37412;DHT22;23278;52.110;6.050;2022-07-18T03:38:06;13.50;84.80
37412;DHT22;23278;52.110;6.050;2022-07-18T03:40:32;13.50;84.90
37412;DHT22;23278;52.110;6.050;2022-07-18T03:42:58;13.50;85.00
37412;DHT22;23278;52.110;6.050;2022-07-18T03:45:24;13.50;85.10
37412;DHT22;23278;52.110;6.050;2022-07-18T03:47:50;13.50;85.30
37412;DHT22;23278;52.110;6.050;2022-07-18T03:50:15;13.50;85.70
37412;DHT22;23278;52.110;6.050;2022-07-18T03:52:41;13.40;85.60
37412;DHT22;23278;52.110;6.050;2022-07-18T03:55:08;13.50;85.70
37412;DHT22;23278;52.110;6.050;2022-07-18T03:57:34;13.40;85.70
37412;DHT22;23278;52.110;6.050;2022-07-18T04:00:00;13.40;86.00
37412;DHT22;23278;52.110;6.050;2022-07-18T04:02:26;13.40;85.90
37412;DHT22;23278;52.110;6.050;2022-07-18T04:04:52;13.40;86.00
37412;DHT22;23278;52.110;6.050;2022-07-18T04:07:18;13.40;86.10
37412;DHT22;23278;52.110;6.050;2022-07-18T04:09:43;13.30;86.10
37412;DHT22;23278;52.110;6.050;2022-07-18T04:12:09;13.30;86.20
37412;DHT22;23278;52.110;6.050;2022-07-18T04:14:35;13.30;86.10
37412;DHT22;23278;52.110;6.050;2022-07-18T04:17:01;13.30;86.20
37412;DHT22;23278;52.110;6.050;2022-07-18T04:19:27;13.30;86.30
37412;DHT22;23278;52.110;6.050;2022-07-18T04:21:53;13.30;86.30
37412;DHT22;23278;52.110;6.050;2022-07-18T04:24:19;13.30;86.30
37412;DHT22;23278;52.110;6.050;2022-07-18T04:26:45;13.40;86.60
37412;DHT22;23278;52.110;6.050;2022-07-18T04:29:11;13.40;86.80
37412;DHT22;23278;52.110;6.050;2022-07-18T04:31:37;13.40;86.80
37412;DHT22;23278;52.110;6.050;2022-07-18T04:34:03;13.40;86.80
37412;DHT22;23278;52.110;6.050;2022-07-18T04:36:29;13.50;86.90
37412;DHT22;23278;52.110;6.050;2022-07-18T04:38:54;13.50;87.10
37412;DHT22;23278;52.110;6.050;2022-07-18T04:41:20;13.50;87.30
37412;DHT22;23278;52.110;6.050;2022-07-18T04:43:51;13.50;87.20
37412;DHT22;23278;52.110;6.050;2022-07-18T04:46:17;13.60;87.30
37412;DHT22;23278;52.110;6.050;2022-07-18T04:48:43;13.60;87.40
37412;DHT22;23278;52.110;6.050;2022-07-18T04:51:09;13.60;87.40
37412;DHT22;23278;52.110;6.050;2022-07-18T04:53:34;13.60;87.60
37412;DHT22;23278;52.110;6.050;2022-07-18T04:56:00;13.60;87.50
37412;DHT22;23278;52.110;6.050;2022-07-18T04:58:26;13.60;87.70
37412;DHT22;23278;52.110;6.050;2022-07-18T05:00:52;13.70;87.80
37412;DHT22;23278;52.110;6.050;2022-07-18T05:03:18;13.70;87.70
37412;DHT22;23278;52.110;6.050;2022-07-18T05:05:44;13.70;87.60
37412;DHT22;23278;52.110;6.050;2022-07-18T05:08:10;13.70;87.70
37412;DHT22;23278;52.110;6.050;2022-07-18T05:10:37;13.80;87.60
37412;DHT22;23278;52.110;6.050;2022-07-18T05:13:03;13.80;87.50
37412;DHT22;23278;52.110;6.050;2022-07-18T05:15:29;14.00;87.60
37412;DHT22;23278;52.110;6.050;2022-07-18T05:17:55;14.00;87.60
37412;DHT22;23278;52.110;6.050;2022-07-18T05:20:25;14.10;87.70
37412;DHT22;23278;52.110;6.050;2022-07-18T05:22:52;14.10;87.70
37412;DHT22;23278;52.110;6.050;2022-07-18T05:25:19;14.20;87.70
37412;DHT22;23278;52.110;6.050;2022-07-18T05:27:45;14.30;87.70
37412;DHT22;23278;52.110;6.050;2022-07-18T05:30:13;14.30;87.70
37412;DHT22;23278;52.110;6.050;2022-07-18T05:32:40;14.40;87.60
37412;DHT22;23278;52.110;6.050;2022-07-18T05:35:07;14.50;87.60
37412;DHT22;23278;52.110;6.050;2022-07-18T05:37:33;14.70;87.40
37412;DHT22;23278;52.110;6.050;2022-07-18T05:40:03;14.80;87.20
37412;DHT22;23278;52.110;6.050;2022-07-18T05:42:29;14.90;86.90
37412;DHT22;23278;52.110;6.050;2022-07-18T05:44:55;15.10;86.80
37412;DHT22;23278;52.110;6.050;2022-07-18T05:47:21;15.20;86.70
37412;DHT22;23278;52.110;6.050;2022-07-18T05:49:47;15.30;86.70
37412;DHT22;23278;52.110;6.050;2022-07-18T05:52:13;15.30;86.90
37412;DHT22;23278;52.110;6.050;2022-07-18T05:54:39;15.30;87.00
37412;DHT22;23278;52.110;6.050;2022-07-18T05:57:05;15.30;87.30
37412;DHT22;23278;52.110;6.050;2022-07-18T05:59:30;15.30;87.50
37412;DHT22;23278;52.110;6.050;2022-07-18T06:01:56;15.30;87.70
37412;DHT22;23278;52.110;6.050;2022-07-18T06:04:22;15.40;88.40
37412;DHT22;23278;52.110;6.050;2022-07-18T06:06:48;15.40;88.10
37412;DHT22;23278;52.110;6.050;2022-07-18T06:09:16;15.50;88.20
37412;DHT22;23278;52.110;6.050;2022-07-18T06:11:42;15.60;88.20
37412;DHT22;23278;52.110;6.050;2022-07-18T06:14:08;15.60;88.20
37412;DHT22;23278;52.110;6.050;2022-07-18T06:16:34;15.80;88.10
37412;DHT22;23278;52.110;6.050;2022-07-18T06:19:00;15.90;87.90
37412;DHT22;23278;52.110;6.050;2022-07-18T06:21:26;16.00;87.70
37412;DHT22;23278;52.110;6.050;2022-07-18T06:23:52;16.20;87.50
37412;DHT22;23278;52.110;6.050;2022-07-18T06:26:18;16.30;87.30
37412;DHT22;23278;52.110;6.050;2022-07-18T06:28:44;16.40;86.90
37412;DHT22;23278;52.110;6.050;2022-07-18T06:31:09;16.50;86.60
37412;DHT22;23278;52.110;6.050;2022-07-18T06:33:40;16.70;86.30
37412;DHT22;23278;52.110;6.050;2022-07-18T06:36:06;16.80;85.80
37412;DHT22;23278;52.110;6.050;2022-07-18T06:38:32;16.90;85.50
37412;DHT22;23278;52.110;6.050;2022-07-18T06:40:58;17.10;85.30
37412;DHT22;23278;52.110;6.050;2022-07-18T06:43:24;17.10;85.10
37412;DHT22;23278;52.110;6.050;2022-07-18T06:45:50;17.20;84.80
37412;DHT22;23278;52.110;6.050;2022-07-18T06:48:18;17.40;84.60
37412;DHT22;23278;52.110;6.050;2022-07-18T06:50:44;17.50;84.30
37412;DHT22;23278;52.110;6.050;2022-07-18T06:53:10;17.70;83.90
37412;DHT22;23278;52.110;6.050;2022-07-18T06:55:36;17.70;83.40
37412;DHT22;23278;52.110;6.050;2022-07-18T06:58:02;17.90;83.00
37412;DHT22;23278;52.110;6.050;2022-07-18T07:00:28;18.00;82.60
37412;DHT22;23278;52.110;6.050;2022-07-18T07:02:53;18.10;82.20
37412;DHT22;23278;52.110;6.050;2022-07-18T07:05:20;18.30;81.40
37412;DHT22;23278;52.110;6.050;2022-07-18T07:07:46;18.40;80.80
37412;DHT22;23278;52.110;6.050;2022-07-18T07:10:13;18.50;80.20
37412;DHT22;23278;52.110;6.050;2022-07-18T07:12:40;18.70;79.20
37412;DHT22;23278;52.110;6.050;2022-07-18T07:15:08;18.90;78.10
37412;DHT22;23278;52.110;6.050;2022-07-18T07:17:36;19.00;76.60
37412;DHT22;23278;52.110;6.050;2022-07-18T07:20:03;19.20;76.00
37412;DHT22;23278;52.110;6.050;2022-07-18T07:22:30;19.30;75.50
37412;DHT22;23278;52.110;6.050;2022-07-18T07:24:56;19.40;75.10
37412;DHT22;23278;52.110;6.050;2022-07-18T07:27:22;19.50;74.60
37412;DHT22;23278;52.110;6.050;2022-07-18T07:29:48;19.70;74.30
37412;DHT22;23278;52.110;6.050;2022-07-18T07:32:14;19.80;73.90
37412;DHT22;23278;52.110;6.050;2022-07-18T07:34:40;19.80;73.70
37412;DHT22;23278;52.110;6.050;2022-07-18T07:37:06;19.90;73.00
37412;DHT22;23278;52.110;6.050;2022-07-18T07:39:32;20.10;72.40
37412;DHT22;23278;52.110;6.050;2022-07-18T07:41:58;20.30;71.80
37412;DHT22;23278;52.110;6.050;2022-07-18T07:44:23;20.30;71.40
37412;DHT22;23278;52.110;6.050;2022-07-18T07:46:49;20.50;71.00
37412;DHT22;23278;52.110;6.050;2022-07-18T07:49:16;20.60;70.40
37412;DHT22;23278;52.110;6.050;2022-07-18T07:51:42;20.60;69.90
37412;DHT22;23278;52.110;6.050;2022-07-18T07:54:08;20.80;69.70
37412;DHT22;23278;52.110;6.050;2022-07-18T07:56:34;20.90;69.40
37412;DHT22;23278;52.110;6.050;2022-07-18T07:59:00;21.00;69.00
37412;DHT22;23278;52.110;6.050;2022-07-18T08:01:27;21.20;68.60
37412;DHT22;23278;52.110;6.050;2022-07-18T08:03:52;21.40;68.10
37412;DHT22;23278;52.110;6.050;2022-07-18T08:06:18;21.60;67.30
37412;DHT22;23278;52.110;6.050;2022-07-18T08:08:44;21.70;67.00
37412;DHT22;23278;52.110;6.050;2022-07-18T08:11:10;21.80;66.50
37412;DHT22;23278;52.110;6.050;2022-07-18T08:13:36;21.90;65.70
37412;DHT22;23278;52.110;6.050;2022-07-18T08:16:02;22.10;65.20
37412;DHT22;23278;52.110;6.050;2022-07-18T08:18:28;22.30;64.90
37412;DHT22;23278;52.110;6.050;2022-07-18T08:20:54;22.50;64.70
37412;DHT22;23278;52.110;6.050;2022-07-18T08:23:20;22.60;64.40
37412;DHT22;23278;52.110;6.050;2022-07-18T08:25:46;22.60;64.00
37412;DHT22;23278;52.110;6.050;2022-07-18T08:28:13;22.80;63.70
37412;DHT22;23278;52.110;6.050;2022-07-18T08:30:39;22.90;62.70
37412;DHT22;23278;52.110;6.050;2022-07-18T08:33:06;23.10;62.00
37412;DHT22;23278;52.110;6.050;2022-07-18T08:35:33;23.30;61.10
37412;DHT22;23278;52.110;6.050;2022-07-18T08:38:00;23.50;60.70
37412;DHT22;23278;52.110;6.050;2022-07-18T08:40:26;23.70;60.30
37412;DHT22;23278;52.110;6.050;2022-07-18T08:42:54;23.80;60.00
37412;DHT22;23278;52.110;6.050;2022-07-18T08:45:21;24.00;58.90
37412;DHT22;23278;52.110;6.050;2022-07-18T08:47:48;24.30;58.30
37412;DHT22;23278;52.110;6.050;2022-07-18T08:50:14;24.40;57.50
37412;DHT22;23278;52.110;6.050;2022-07-18T08:52:40;24.60;57.20
37412;DHT22;23278;52.110;6.050;2022-07-18T08:55:07;24.80;57.40
37412;DHT22;23278;52.110;6.050;2022-07-18T08:57:34;24.90;56.00
37412;DHT22;23278;52.110;6.050;2022-07-18T09:00:03;25.00;55.50
37412;DHT22;23278;52.110;6.050;2022-07-18T09:02:30;25.10;55.10
37412;DHT22;23278;52.110;6.050;2022-07-18T09:04:55;25.20;53.90
37412;DHT22;23278;52.110;6.050;2022-07-18T09:07:30;25.30;54.10
37412;DHT22;23278;52.110;6.050;2022-07-18T09:10:00;25.40;53.90
37412;DHT22;23278;52.110;6.050;2022-07-18T09:12:27;25.60;53.40
37412;DHT22;23278;52.110;6.050;2022-07-18T09:14:54;25.70;53.40
37412;DHT22;23278;52.110;6.050;2022-07-18T09:17:25;25.80;52.70
37412;DHT22;23278;52.110;6.050;2022-07-18T09:22:40;26.20;51.30
37412;DHT22;23278;52.110;6.050;2022-07-18T09:25:25;26.30;50.90
37412;DHT22;23278;52.110;6.050;2022-07-18T09:27:52;26.50;50.60
37412;DHT22;23278;52.110;6.050;2022-07-18T09:30:22;26.70;50.10
37412;DHT22;23278;52.110;6.050;2022-07-18T09:33:06;26.80;47.80
37412;DHT22;23278;52.110;6.050;2022-07-18T09:35:36;26.90;47.70
37412;DHT22;23278;52.110;6.050;2022-07-18T09:40:39;27.50;44.90
37412;DHT22;23278;52.110;6.050;2022-07-18T09:43:08;28.00;44.90
37412;DHT22;23278;52.110;6.050;2022-07-18T09:45:36;28.50;44.10
37412;DHT22;23278;52.110;6.050;2022-07-18T09:48:15;29.10;43.50
37412;DHT22;23278;52.110;6.050;2022-07-18T09:50:58;29.80;41.20
37412;DHT22;23278;52.110;6.050;2022-07-18T09:53:39;30.40;41.30
37412;DHT22;23278;52.110;6.050;2022-07-18T09:56:22;31.00;40.40
37412;DHT22;23278;52.110;6.050;2022-07-18T09:58:54;31.60;38.20
37412;DHT22;23278;52.110;6.050;2022-07-18T10:01:20;32.20;37.80
37412;DHT22;23278;52.110;6.050;2022-07-18T10:03:46;32.70;36.90
37412;DHT22;23278;52.110;6.050;2022-07-18T10:06:15;33.30;36.70
37412;DHT22;23278;52.110;6.050;2022-07-18T10:08:42;33.90;35.30
37412;DHT22;23278;52.110;6.050;2022-07-18T10:11:09;34.50;35.20
37412;DHT22;23278;52.110;6.050;2022-07-18T10:13:37;35.20;34.80
37412;DHT22;23278;52.110;6.050;2022-07-18T10:16:04;35.70;32.50
37412;DHT22;23278;52.110;6.050;2022-07-18T10:18:32;36.00;32.40
37412;DHT22;23278;52.110;6.050;2022-07-18T10:23:33;36.80;31.30
37412;DHT22;23278;52.110;6.050;2022-07-18T10:26:23;37.00;31.20
37412;DHT22;23278;52.110;6.050;2022-07-18T10:29:15;37.40;30.00
37412;DHT22;23278;52.110;6.050;2022-07-18T10:32:00;37.80;30.20
37412;DHT22;23278;52.110;6.050;2022-07-18T10:34:32;38.40;30.40
37412;DHT22;23278;52.110;6.050;2022-07-18T10:39:44;39.80;29.10
37412;DHT22;23278;52.110;6.050;2022-07-18T10:42:14;40.50;28.30
37412;DHT22;23278;52.110;6.050;2022-07-18T10:44:40;40.90;27.90
37412;DHT22;23278;52.110;6.050;2022-07-18T10:47:15;41.40;27.70
37412;DHT22;23278;52.110;6.050;2022-07-18T10:58:14;44.00;27.90
37412;DHT22;23278;52.110;6.050;2022-07-18T11:00:28;44.70;27.90
37412;DHT22;23278;52.110;6.050;2022-07-18T11:16:01;46.60;26.60
37412;DHT22;23278;52.110;6.050;2022-07-18T11:18:31;46.90;26.40
37412;DHT22;23278;52.110;6.050;2022-07-18T11:20:57;47.20;26.60
37412;DHT22;23278;52.110;6.050;2022-07-18T11:23:27;47.40;26.60
37412;DHT22;23278;52.110;6.050;2022-07-18T11:25:56;47.80;26.60
37412;DHT22;23278;52.110;6.050;2022-07-18T11:28:24;48.10;26.50
37412;DHT22;23278;52.110;6.050;2022-07-18T11:33:30;48.90;26.60
37412;DHT22;23278;52.110;6.050;2022-07-18T11:36:10;49.40;26.30
37412;DHT22;23278;52.110;6.050;2022-07-18T11:38:39;49.60;25.60
37412;DHT22;23278;52.110;6.050;2022-07-18T11:41:05;49.40;25.10
37412;DHT22;23278;52.110;6.050;2022-07-18T11:43:32;49.40;24.80
37412;DHT22;23278;52.110;6.050;2022-07-18T11:46:08;49.00;24.90
37412;DHT22;23278;52.110;6.050;2022-07-18T11:48:36;49.40;24.90
37412;DHT22;23278;52.110;6.050;2022-07-18T11:51:08;49.70;24.90
37412;DHT22;23278;52.110;6.050;2022-07-18T11:53:34;50.00;24.90
37412;DHT22;23278;52.110;6.050;2022-07-18T11:56:04;50.20;25.10
37412;DHT22;23278;52.110;6.050;2022-07-18T11:58:36;50.40;24.80
37412;DHT22;23278;52.110;6.050;2022-07-18T12:01:05;50.40;24.90
37412;DHT22;23278;52.110;6.050;2022-07-18T12:03:35;50.60;24.90
37412;DHT22;23278;52.110;6.050;2022-07-18T12:06:15;50.90;25.10
37412;DHT22;23278;52.110;6.050;2022-07-18T12:08:44;51.70;25.30
37412;DHT22;23278;52.110;6.050;2022-07-18T12:13:51;52.40;24.90
37412;DHT22;23278;52.110;6.050;2022-07-18T12:19:59;52.70;24.80
37412;DHT22;23278;52.110;6.050;2022-07-18T12:21:51;52.90;24.80
37412;DHT22;23278;52.110;6.050;2022-07-18T12:26:44;53.30;24.70
37412;DHT22;23278;52.110;6.050;2022-07-18T12:29:10;53.90;24.80
37412;DHT22;23278;52.110;6.050;2022-07-18T12:31:45;54.80;24.60
37412;DHT22;23278;52.110;6.050;2022-07-18T12:34:15;54.90;24.10
37412;DHT22;23278;52.110;6.050;2022-07-18T12:36:56;54.60;24.30
37412;DHT22;23278;52.110;6.050;2022-07-18T12:39:33;54.80;24.30
37412;DHT22;23278;52.110;6.050;2022-07-18T12:42:00;55.10;24.20
37412;DHT22;23278;52.110;6.050;2022-07-18T12:44:27;54.90;24.20
37412;DHT22;23278;52.110;6.050;2022-07-18T12:46:54;54.80;24.20
37412;DHT22;23278;52.110;6.050;2022-07-18T12:49:21;55.10;24.40
37412;DHT22;23278;52.110;6.050;2022-07-18T12:51:47;55.40;24.60
37412;DHT22;23278;52.110;6.050;2022-07-18T12:54:16;55.50;24.20
37412;DHT22;23278;52.110;6.050;2022-07-18T12:56:42;55.40;23.90
37412;DHT22;23278;52.110;6.050;2022-07-18T12:59:08;55.10;24.00
37412;DHT22;23278;52.110;6.050;2022-07-18T13:01:34;55.20;24.00
37412;DHT22;23278;52.110;6.050;2022-07-18T13:04:00;55.20;24.00
37412;DHT22;23278;52.110;6.050;2022-07-18T13:06:26;55.50;24.30
37412;DHT22;23278;52.110;6.050;2022-07-18T13:08:52;56.00;24.00
37412;DHT22;23278;52.110;6.050;2022-07-18T13:11:18;56.30;24.00
37412;DHT22;23278;52.110;6.050;2022-07-18T13:13:44;54.80;24.60
37412;DHT22;23278;52.110;6.050;2022-07-18T13:16:10;54.20;23.90
37412;DHT22;23278;52.110;6.050;2022-07-18T13:18:36;53.70;23.80
37412;DHT22;23278;52.110;6.050;2022-07-18T13:21:01;53.60;24.30
37412;DHT22;23278;52.110;6.050;2022-07-18T13:23:27;53.80;23.80
37412;DHT22;23278;52.110;6.050;2022-07-18T13:25:53;54.50;24.00
37412;DHT22;23278;52.110;6.050;2022-07-18T13:28:19;55.30;24.00
37412;DHT22;23278;52.110;6.050;2022-07-18T13:30:45;55.80;23.90
37412;DHT22;23278;52.110;6.050;2022-07-18T13:33:11;55.90;23.80
37412;DHT22;23278;52.110;6.050;2022-07-18T13:35:37;56.20;24.00
37412;DHT22;23278;52.110;6.050;2022-07-18T13:38:02;56.80;24.00
37412;DHT22;23278;52.110;6.050;2022-07-18T13:40:28;57.20;23.60
37412;DHT22;23278;52.110;6.050;2022-07-18T13:42:55;57.20;23.80
37412;DHT22;23278;52.110;6.050;2022-07-18T13:45:21;57.70;24.00
37412;DHT22;23278;52.110;6.050;2022-07-18T13:47:47;58.10;24.10
37412;DHT22;23278;52.110;6.050;2022-07-18T13:50:13;58.40;24.10
37412;DHT22;23278;52.110;6.050;2022-07-18T13:52:39;58.40;23.90
37412;DHT22;23278;52.110;6.050;2022-07-18T13:55:05;58.50;24.10
37412;DHT22;23278;52.110;6.050;2022-07-18T13:57:31;58.40;24.20
37412;DHT22;23278;52.110;6.050;2022-07-18T13:59:58;58.10;24.10
37412;DHT22;23278;52.110;6.050;2022-07-18T14:02:23;57.80;23.90
37412;DHT22;23278;52.110;6.050;2022-07-18T14:04:49;57.90;23.70
37412;DHT22;23278;52.110;6.050;2022-07-18T14:07:15;57.20;23.80
37412;DHT22;23278;52.110;6.050;2022-07-18T14:09:44;56.90;23.70
37412;DHT22;23278;52.110;6.050;2022-07-18T14:12:10;56.50;23.50
37412;DHT22;23278;52.110;6.050;2022-07-18T14:14:36;56.40;23.60
37412;DHT22;23278;52.110;6.050;2022-07-18T14:17:02;56.90;23.90
37412;DHT22;23278;52.110;6.050;2022-07-18T14:19:28;57.10;23.90
37412;DHT22;23278;52.110;6.050;2022-07-18T14:21:53;57.20;24.10
37412;DHT22;23278;52.110;6.050;2022-07-18T14:24:21;57.20;24.10
37412;DHT22;23278;52.110;6.050;2022-07-18T14:26:47;57.50;24.20
37412;DHT22;23278;52.110;6.050;2022-07-18T14:29:13;57.80;23.90
37412;DHT22;23278;52.110;6.050;2022-07-18T14:31:39;57.80;23.80
37412;DHT22;23278;52.110;6.050;2022-07-18T14:34:05;57.90;23.80
37412;DHT22;23278;52.110;6.050;2022-07-18T14:36:31;57.90;24.30
37412;DHT22;23278;52.110;6.050;2022-07-18T14:38:57;58.00;23.80
37412;DHT22;23278;52.110;6.050;2022-07-18T14:41:23;58.30;23.80
37412;DHT22;23278;52.110;6.050;2022-07-18T14:43:49;58.70;23.70
37412;DHT22;23278;52.110;6.050;2022-07-18T14:46:14;58.60;23.60
37412;DHT22;23278;52.110;6.050;2022-07-18T14:48:40;58.20;23.60
37412;DHT22;23278;52.110;6.050;2022-07-18T14:51:07;58.20;23.60
37412;DHT22;23278;52.110;6.050;2022-07-18T14:53:34;58.10;23.50
37412;DHT22;23278;52.110;6.050;2022-07-18T14:56:00;58.30;23.70
37412;DHT22;23278;52.110;6.050;2022-07-18T14:58:25;58.50;23.70
37412;DHT22;23278;52.110;6.050;2022-07-18T15:00:51;58.50;23.70
37412;DHT22;23278;52.110;6.050;2022-07-18T15:03:17;58.50;23.80
37412;DHT22;23278;52.110;6.050;2022-07-18T15:05:44;58.70;23.80
37412;DHT22;23278;52.110;6.050;2022-07-18T15:08:10;58.60;23.90
37412;DHT22;23278;52.110;6.050;2022-07-18T15:10:36;58.70;24.00
37412;DHT22;23278;52.110;6.050;2022-07-18T15:13:01;59.00;24.10
37412;DHT22;23278;52.110;6.050;2022-07-18T15:15:27;59.00;24.10
37412;DHT22;23278;52.110;6.050;2022-07-18T15:17:53;58.80;24.00
37412;DHT22;23278;52.110;6.050;2022-07-18T15:20:19;58.50;23.60
37412;DHT22;23278;52.110;6.050;2022-07-18T15:22:45;58.00;23.80
37412;DHT22;23278;52.110;6.050;2022-07-18T15:25:11;57.70;23.70
37412;DHT22;23278;52.110;6.050;2022-07-18T15:27:37;57.70;23.80
37412;DHT22;23278;52.110;6.050;2022-07-18T15:30:03;57.70;23.90
37412;DHT22;23278;52.110;6.050;2022-07-18T15:32:30;57.70;24.00
37412;DHT22;23278;52.110;6.050;2022-07-18T15:34:56;57.80;24.30
37412;DHT22;23278;52.110;6.050;2022-07-18T15:37:21;57.90;24.30
37412;DHT22;23278;52.110;6.050;2022-07-18T15:39:47;58.00;24.20
37412;DHT22;23278;52.110;6.050;2022-07-18T15:42:13;57.80;23.90
37412;DHT22;23278;52.110;6.050;2022-07-18T15:44:39;57.60;23.90
37412;DHT22;23278;52.110;6.050;2022-07-18T15:47:06;57.60;23.90
37412;DHT22;23278;52.110;6.050;2022-07-18T15:49:36;57.70;24.00
37412;DHT22;23278;52.110;6.050;2022-07-18T15:52:04;57.40;24.00
37412;DHT22;23278;52.110;6.050;2022-07-18T15:54:33;56.80;23.90
37412;DHT22;23278;52.110;6.050;2022-07-18T15:56:59;56.50;23.90
37412;DHT22;23278;52.110;6.050;2022-07-18T15:59:25;55.90;23.70
37412;DHT22;23278;52.110;6.050;2022-07-18T16:01:51;55.10;23.70
37412;DHT22;23278;52.110;6.050;2022-07-18T16:04:17;54.50;23.90
37412;DHT22;23278;52.110;6.050;2022-07-18T16:06:44;54.30;23.90
37412;DHT22;23278;52.110;6.050;2022-07-18T16:09:11;54.70;24.00
37412;DHT22;23278;52.110;6.050;2022-07-18T16:11:37;55.00;24.10